sensor_id;sensor_type;location;lat;lon;timestamp;P1;durP1;ratioP1;P2;durP2;ratioP2
64678;SDS011;51094;53.864;27.676;2022-07-15T00:01:41;0.60;;;0.60;;
64678;SDS011;51094;53.864;27.676;2022-07-15T00:04:08;0.63;;;0.60;;
64678;SDS011;51094;53.864;27.676;2022-07-15T00:06:36;0.40;;;0.40;;
64678;SDS011;51094;53.864;27.676;2022-07-15T00:09:03;0.40;;;0.40;;
64678;SDS011;51094;53.864;27.676;2022-07-15T00:11:29;0.40;;;0.40;;
64678;SDS011;51094;53.864;27.676;2022-07-15T00:13:56;0.43;;;0.40;;
64678;SDS011;51094;53.864;27.676;2022-07-15T00:16:28;0.38;;;0.38;;
64678;SDS011;51094;53.864;27.676;2022-07-15T00:18:55;0.60;;;0.40;;
64678;SDS011;51094;53.864;27.676;2022-07-15T00:21:22;0.43;;;0.43;;
64678;SDS011;51094;53.864;27.676;2022-07-15T00:23:48;0.40;;;0.40;;
64678;SDS011;51094;53.864;27.676;2022-07-15T00:26:15;0.45;;;0.40;;
64678;SDS011;51094;53.864;27.676;2022-07-15T00:28:42;0.50;;;0.50;;
64678;SDS011;51094;53.864;27.676;2022-07-15T00:31:08;0.60;;;0.60;;
64678;SDS011;51094;53.864;27.676;2022-07-15T00:33:36;0.60;;;0.60;;
64678;SDS011;51094;53.864;27.676;2022-07-15T00:36:03;0.30;;;0.30;;
64678;SDS011;51094;53.864;27.676;2022-07-15T00:38:30;0.60;;;0.60;;
64678;SDS011;51094;53.864;27.676;2022-07-15T00:40:57;0.50;;;0.50;;
64678;SDS011;51094;53.864;27.676;2022-07-15T00:43:24;0.60;;;0.60;;
64678;SDS011;51094;53.864;27.676;2022-07-15T00:45:50;0.50;;;0.50;;
64678;SDS011;51094;53.864;27.676;2022-07-15T00:48:19;0.40;;;0.40;;
64678;SDS011;51094;53.864;27.676;2022-07-15T00:50:46;0.70;;;0.70;;
64678;SDS011;51094;53.864;27.676;2022-07-15T00:53:17;0.50;;;0.50;;
64678;SDS011;51094;53.864;27.676;2022-07-15T00:55:46;0.70;;;0.70;;
64678;SDS011;51094;53.864;27.676;2022-07-15T00:58:15;0.40;;;0.40;;
64678;SDS011;51094;53.864;27.676;2022-07-15T01:00:47;0.63;;;0.50;;
64678;SDS011;51094;53.864;27.676;2022-07-15T01:03:16;0.60;;;0.60;;
64678;SDS011;51094;53.864;27.676;2022-07-15T01:05:44;0.50;;;0.50;;
64678;SDS011;51094;53.864;27.676;2022-07-15T01:08:15;0.60;;;0.60;;
64678;SDS011;51094;53.864;27.676;2022-07-15T01:10:46;0.55;;;0.55;;
64678;SDS011;51094;53.864;27.676;2022-07-15T01:13:14;0.70;;;0.70;;
64678;SDS011;51094;53.864;27.676;2022-07-15T01:15:42;0.70;;;0.70;;
64678;SDS011;51094;53.864;27.676;2022-07-15T01:18:09;0.63;;;0.63;;
64678;SDS011;51094;53.864;27.676;2022-07-15T01:23:07;0.60;;;0.60;;
64678;SDS011;51094;53.864;27.676;2022-07-15T01:25:39;0.80;;;0.80;;
64678;SDS011;51094;53.864;27.676;2022-07-15T01:28:09;0.70;;;0.70;;
64678;SDS011;51094;53.864;27.676;2022-07-15T01:30:38;0.80;;;0.80;;
64678;SDS011;51094;53.864;27.676;2022-07-15T01:33:07;0.80;;;0.80;;
64678;SDS011;51094;53.864;27.676;2022-07-15T01:35:34;0.70;;;0.70;;
64678;SDS011;51094;53.864;27.676;2022-07-15T01:38:00;0.65;;;0.65;;
64678;SDS011;51094;53.864;27.676;2022-07-15T01:40:27;0.70;;;0.70;;
64678;SDS011;51094;53.864;27.676;2022-07-15T01:42:55;0.60;;;0.60;;
64678;SDS011;51094;53.864;27.676;2022-07-15T01:45:21;0.60;;;0.60;;
64678;SDS011;51094;53.864;27.676;2022-07-15T01:47:49;0.68;;;0.68;;
64678;SDS011;51094;53.864;27.676;2022-07-15T01:50:44;1.10;;;1.10;;
64678;SDS011;51094;53.864;27.676;2022-07-15T01:53:15;0.80;;;0.80;;
64678;SDS011;51094;53.864;27.676;2022-07-15T01:55:42;0.68;;;0.68;;
64678;SDS011;51094;53.864;27.676;2022-07-15T01:58:09;0.70;;;0.70;;
64678;SDS011;51094;53.864;27.676;2022-07-15T02:00:37;0.80;;;0.80;;
64678;SDS011;51094;53.864;27.676;2022-07-15T02:03:05;0.65;;;0.65;;
64678;SDS011;51094;53.864;27.676;2022-07-15T02:05:34;0.73;;;0.73;;
64678;SDS011;51094;53.864;27.676;2022-07-15T02:08:02;0.85;;;0.85;;
64678;SDS011;51094;53.864;27.676;2022-07-15T02:10:29;0.80;;;0.80;;
64678;SDS011;51094;53.864;27.676;2022-07-15T02:13:11;0.93;;;0.93;;
64678;SDS011;51094;53.864;27.676;2022-07-15T02:15:44;0.85;;;0.85;;
64678;SDS011;51094;53.864;27.676;2022-07-15T02:18:11;0.98;;;0.98;;
64678;SDS011;51094;53.864;27.676;2022-07-15T02:20:38;1.17;;;1.17;;
64678;SDS011;51094;53.864;27.676;2022-07-15T02:23:05;1.00;;;1.00;;
64678;SDS011;51094;53.864;27.676;2022-07-15T02:25:32;1.00;;;1.00;;
64678;SDS011;51094;53.864;27.676;2022-07-15T02:28:02;1.27;;;1.27;;
64678;SDS011;51094;53.864;27.676;2022-07-15T02:30:31;1.05;;;1.05;;
64678;SDS011;51094;53.864;27.676;2022-07-15T02:33:01;0.98;;;0.98;;
64678;SDS011;51094;53.864;27.676;2022-07-15T02:35:31;1.08;;;1.08;;
64678;SDS011;51094;53.864;27.676;2022-07-15T02:37:59;0.90;;;0.90;;
64678;SDS011;51094;53.864;27.676;2022-07-15T02:40:27;0.90;;;0.90;;
64678;SDS011;51094;53.864;27.676;2022-07-15T02:42:56;0.80;;;0.80;;
64678;SDS011;51094;53.864;27.676;2022-07-15T02:45:25;0.98;;;0.98;;
64678;SDS011;51094;53.864;27.676;2022-07-15T02:47:53;1.00;;;1.00;;
64678;SDS011;51094;53.864;27.676;2022-07-15T02:50:26;1.30;;;1.20;;
64678;SDS011;51094;53.864;27.676;2022-07-15T02:52:53;1.00;;;1.00;;
64678;SDS011;51094;53.864;27.676;2022-07-15T02:55:20;1.00;;;1.00;;
64678;SDS011;51094;53.864;27.676;2022-07-15T02:57:47;1.15;;;1.15;;
64678;SDS011;51094;53.864;27.676;2022-07-15T03:00:15;1.25;;;1.25;;
64678;SDS011;51094;53.864;27.676;2022-07-15T03:02:49;1.30;;;1.30;;
64678;SDS011;51094;53.864;27.676;2022-07-15T03:05:16;1.45;;;1.38;;
64678;SDS011;51094;53.864;27.676;2022-07-15T03:07:44;1.80;;;1.80;;
64678;SDS011;51094;53.864;27.676;2022-07-15T03:10:15;1.90;;;1.90;;
64678;SDS011;51094;53.864;27.676;2022-07-15T03:12:43;1.65;;;1.65;;
64678;SDS011;51094;53.864;27.676;2022-07-15T03:15:10;1.73;;;1.63;;
64678;SDS011;51094;53.864;27.676;2022-07-15T03:17:38;1.50;;;1.50;;
64678;SDS011;51094;53.864;27.676;2022-07-15T03:20:08;1.67;;;1.67;;
64678;SDS011;51094;53.864;27.676;2022-07-15T03:22:43;1.40;;;1.40;;
64678;SDS011;51094;53.864;27.676;2022-07-15T03:25:10;1.50;;;1.50;;
64678;SDS011;51094;53.864;27.676;2022-07-15T03:27:37;1.50;;;1.50;;
64678;SDS011;51094;53.864;27.676;2022-07-15T03:30:06;1.50;;;1.50;;
64678;SDS011;51094;53.864;27.676;2022-07-15T03:32:33;1.80;;;1.73;;
64678;SDS011;51094;53.864;27.676;2022-07-15T03:35:00;1.65;;;1.65;;
64678;SDS011;51094;53.864;27.676;2022-07-15T03:37:30;1.70;;;1.70;;
64678;SDS011;51094;53.864;27.676;2022-07-15T03:39:57;1.40;;;1.40;;
64678;SDS011;51094;53.864;27.676;2022-07-15T03:42:24;1.70;;;1.65;;
64678;SDS011;51094;53.864;27.676;2022-07-15T03:44:51;1.30;;;1.30;;
64678;SDS011;51094;53.864;27.676;2022-07-15T03:47:18;1.40;;;1.40;;
64678;SDS011;51094;53.864;27.676;2022-07-15T03:49:45;1.50;;;1.50;;
64678;SDS011;51094;53.864;27.676;2022-07-15T03:52:11;1.40;;;1.40;;
64678;SDS011;51094;53.864;27.676;2022-07-15T03:54:38;1.60;;;1.60;;
64678;SDS011;51094;53.864;27.676;2022-07-15T03:57:05;1.48;;;1.48;;
64678;SDS011;51094;53.864;27.676;2022-07-15T03:59:31;1.55;;;1.55;;
64678;SDS011;51094;53.864;27.676;2022-07-15T04:01:58;1.20;;;1.20;;
64678;SDS011;51094;53.864;27.676;2022-07-15T04:04:25;1.10;;;1.10;;
64678;SDS011;51094;53.864;27.676;2022-07-15T04:06:52;0.98;;;0.98;;
64678;SDS011;51094;53.864;27.676;2022-07-15T04:09:21;1.20;;;1.20;;
64678;SDS011;51094;53.864;27.676;2022-07-15T04:11:48;1.10;;;1.10;;
64678;SDS011;51094;53.864;27.676;2022-07-15T04:14:15;0.70;;;0.70;;
64678;SDS011;51094;53.864;27.676;2022-07-15T04:16:44;1.10;;;1.10;;
64678;SDS011;51094;53.864;27.676;2022-07-15T04:19:23;1.30;;;1.30;;
64678;SDS011;51094;53.864;27.676;2022-07-15T04:21:54;1.00;;;1.00;;
64678;SDS011;51094;53.864;27.676;2022-07-15T04:24:21;1.23;;;1.10;;
64678;SDS011;51094;53.864;27.676;2022-07-15T04:26:49;0.80;;;0.80;;
64678;SDS011;51094;53.864;27.676;2022-07-15T04:29:16;0.90;;;0.90;;
64678;SDS011;51094;53.864;27.676;2022-07-15T04:31:44;0.80;;;0.80;;
64678;SDS011;51094;53.864;27.676;2022-07-15T04:34:18;0.80;;;0.80;;
64678;SDS011;51094;53.864;27.676;2022-07-15T04:36:46;0.90;;;0.90;;
64678;SDS011;51094;53.864;27.676;2022-07-15T04:39:13;0.68;;;0.68;;
64678;SDS011;51094;53.864;27.676;2022-07-15T04:41:40;1.00;;;1.00;;
64678;SDS011;51094;53.864;27.676;2022-07-15T04:44:07;0.70;;;0.70;;
64678;SDS011;51094;53.864;27.676;2022-07-15T04:46:33;1.00;;;0.90;;
64678;SDS011;51094;53.864;27.676;2022-07-15T04:49:18;0.85;;;0.85;;
64678;SDS011;51094;53.864;27.676;2022-07-15T04:52:03;1.20;;;1.20;;
64678;SDS011;51094;53.864;27.676;2022-07-15T04:54:32;1.33;;;1.33;;
64678;SDS011;51094;53.864;27.676;2022-07-15T04:57:00;1.67;;;1.60;;
64678;SDS011;51094;53.864;27.676;2022-07-15T04:59:26;2.20;;;2.10;;
64678;SDS011;51094;53.864;27.676;2022-07-15T05:01:53;2.67;;;2.47;;
64678;SDS011;51094;53.864;27.676;2022-07-15T05:04:32;2.30;;;2.20;;
64678;SDS011;51094;53.864;27.676;2022-07-15T05:06:59;2.50;;;2.30;;
64678;SDS011;51094;53.864;27.676;2022-07-15T05:11:56;1.90;;;1.80;;
64678;SDS011;51094;53.864;27.676;2022-07-15T05:14:22;2.08;;;1.98;;
64678;SDS011;51094;53.864;27.676;2022-07-15T05:16:49;1.27;;;1.27;;
64678;SDS011;51094;53.864;27.676;2022-07-15T05:19:16;1.35;;;1.33;;
64678;SDS011;51094;53.864;27.676;2022-07-15T05:21:43;1.25;;;1.25;;
64678;SDS011;51094;53.864;27.676;2022-07-15T05:24:11;1.40;;;1.30;;
64678;SDS011;51094;53.864;27.676;2022-07-15T05:26:55;1.20;;;1.20;;
64678;SDS011;51094;53.864;27.676;2022-07-15T05:29:23;1.40;;;1.30;;
64678;SDS011;51094;53.864;27.676;2022-07-15T05:31:52;1.50;;;1.50;;
64678;SDS011;51094;53.864;27.676;2022-07-15T05:34:18;1.17;;;1.17;;
64678;SDS011;51094;53.864;27.676;2022-07-15T05:36:45;1.52;;;1.40;;
64678;SDS011;51094;53.864;27.676;2022-07-15T05:39:15;1.45;;;1.40;;
64678;SDS011;51094;53.864;27.676;2022-07-15T05:41:41;1.48;;;1.38;;
64678;SDS011;51094;53.864;27.676;2022-07-15T05:44:13;1.33;;;1.33;;
64678;SDS011;51094;53.864;27.676;2022-07-15T05:46:45;1.63;;;1.60;;
64678;SDS011;51094;53.864;27.676;2022-07-15T05:49:12;2.40;;;2.30;;
64678;SDS011;51094;53.864;27.676;2022-07-15T05:51:39;2.15;;;2.05;;
64678;SDS011;51094;53.864;27.676;2022-07-15T05:54:07;2.75;;;2.65;;
64678;SDS011;51094;53.864;27.676;2022-07-15T05:56:34;4.35;;;4.15;;
64678;SDS011;51094;53.864;27.676;2022-07-15T05:59:01;4.93;;;4.82;;
64678;SDS011;51094;53.864;27.676;2022-07-15T06:01:32;4.68;;;4.53;;
64678;SDS011;51094;53.864;27.676;2022-07-15T06:03:59;4.70;;;4.50;;
64678;SDS011;51094;53.864;27.676;2022-07-15T06:06:26;2.95;;;2.85;;
64678;SDS011;51094;53.864;27.676;2022-07-15T06:08:52;2.65;;;2.55;;
64678;SDS011;51094;53.864;27.676;2022-07-15T06:11:21;1.40;;;1.40;;
64678;SDS011;51094;53.864;27.676;2022-07-15T06:13:49;1.20;;;1.20;;
64678;SDS011;51094;53.864;27.676;2022-07-15T06:16:16;1.50;;;1.50;;
64678;SDS011;51094;53.864;27.676;2022-07-15T06:18:43;1.70;;;1.60;;
64678;SDS011;51094;53.864;27.676;2022-07-15T06:21:10;1.33;;;1.30;;
64678;SDS011;51094;53.864;27.676;2022-07-15T06:23:37;1.60;;;1.50;;
64678;SDS011;51094;53.864;27.676;2022-07-15T06:26:04;1.50;;;1.40;;
64678;SDS011;51094;53.864;27.676;2022-07-15T06:28:31;1.30;;;1.20;;
64678;SDS011;51094;53.864;27.676;2022-07-15T06:30:58;1.10;;;1.10;;
64678;SDS011;51094;53.864;27.676;2022-07-15T06:33:25;1.55;;;1.55;;
64678;SDS011;51094;53.864;27.676;2022-07-15T06:35:51;1.10;;;1.10;;
64678;SDS011;51094;53.864;27.676;2022-07-15T06:38:18;1.10;;;1.10;;
64678;SDS011;51094;53.864;27.676;2022-07-15T06:40:45;1.15;;;1.15;;
64678;SDS011;51094;53.864;27.676;2022-07-15T06:43:12;0.98;;;0.98;;
64678;SDS011;51094;53.864;27.676;2022-07-15T06:45:54;1.00;;;1.00;;
64678;SDS011;51094;53.864;27.676;2022-07-15T06:48:21;1.20;;;1.10;;
64678;SDS011;51094;53.864;27.676;2022-07-15T06:50:47;1.00;;;1.00;;
64678;SDS011;51094;53.864;27.676;2022-07-15T06:53:14;1.85;;;1.75;;
64678;SDS011;51094;53.864;27.676;2022-07-15T06:55:41;2.22;;;2.13;;
64678;SDS011;51094;53.864;27.676;2022-07-15T06:58:07;2.17;;;2.00;;
64678;SDS011;51094;53.864;27.676;2022-07-15T07:00:35;1.70;;;1.60;;
64678;SDS011;51094;53.864;27.676;2022-07-15T07:03:02;1.27;;;1.20;;
64678;SDS011;51094;53.864;27.676;2022-07-15T07:05:28;2.05;;;2.05;;
64678;SDS011;51094;53.864;27.676;2022-07-15T07:07:55;1.20;;;1.20;;
64678;SDS011;51094;53.864;27.676;2022-07-15T07:10:24;0.98;;;0.98;;
64678;SDS011;51094;53.864;27.676;2022-07-15T07:12:52;1.38;;;1.38;;
64678;SDS011;51094;53.864;27.676;2022-07-15T07:15:19;1.10;;;1.10;;
64678;SDS011;51094;53.864;27.676;2022-07-15T07:17:47;0.90;;;0.90;;
64678;SDS011;51094;53.864;27.676;2022-07-15T07:20:14;0.80;;;0.80;;
64678;SDS011;51094;53.864;27.676;2022-07-15T07:22:40;0.70;;;0.70;;
64678;SDS011;51094;53.864;27.676;2022-07-15T07:25:07;0.75;;;0.75;;
64678;SDS011;51094;53.864;27.676;2022-07-15T07:27:34;0.73;;;0.73;;
64678;SDS011;51094;53.864;27.676;2022-07-15T07:30:01;0.90;;;0.90;;
64678;SDS011;51094;53.864;27.676;2022-07-15T07:32:31;0.70;;;0.70;;
64678;SDS011;51094;53.864;27.676;2022-07-15T07:35:05;1.30;;;1.20;;
64678;SDS011;51094;53.864;27.676;2022-07-15T07:37:33;2.00;;;1.90;;
64678;SDS011;51094;53.864;27.676;2022-07-15T07:40:05;0.95;;;0.95;;
64678;SDS011;51094;53.864;27.676;2022-07-15T07:42:32;1.00;;;1.00;;
64678;SDS011;51094;53.864;27.676;2022-07-15T07:45:00;1.58;;;1.48;;
64678;SDS011;51094;53.864;27.676;2022-07-15T07:47:27;1.30;;;1.30;;
64678;SDS011;51094;53.864;27.676;2022-07-15T07:49:54;1.13;;;1.08;;
64678;SDS011;51094;53.864;27.676;2022-07-15T07:52:21;1.05;;;1.05;;
64678;SDS011;51094;53.864;27.676;2022-07-15T07:54:53;1.52;;;1.52;;
64678;SDS011;51094;53.864;27.676;2022-07-15T07:57:20;2.20;;;2.10;;
64678;SDS011;51094;53.864;27.676;2022-07-15T07:59:46;2.40;;;2.30;;
64678;SDS011;51094;53.864;27.676;2022-07-15T08:02:19;2.10;;;2.00;;
64678;SDS011;51094;53.864;27.676;2022-07-15T08:04:46;1.23;;;1.20;;
64678;SDS011;51094;53.864;27.676;2022-07-15T08:07:13;0.88;;;0.88;;
64678;SDS011;51094;53.864;27.676;2022-07-15T08:09:40;0.82;;;0.82;;
64678;SDS011;51094;53.864;27.676;2022-07-15T08:12:06;0.68;;;0.68;;
64678;SDS011;51094;53.864;27.676;2022-07-15T08:14:34;0.70;;;0.70;;
64678;SDS011;51094;53.864;27.676;2022-07-15T08:17:00;0.80;;;0.80;;
64678;SDS011;51094;53.864;27.676;2022-07-15T08:19:27;0.80;;;0.80;;
64678;SDS011;51094;53.864;27.676;2022-07-15T08:21:54;0.75;;;0.75;;
64678;SDS011;51094;53.864;27.676;2022-07-15T08:24:20;1.30;;;1.30;;
64678;SDS011;51094;53.864;27.676;2022-07-15T08:26:47;1.00;;;1.00;;
64678;SDS011;51094;53.864;27.676;2022-07-15T08:29:14;1.02;;;1.02;;
64678;SDS011;51094;53.864;27.676;2022-07-15T08:31:40;1.00;;;1.00;;
64678;SDS011;51094;53.864;27.676;2022-07-15T08:34:07;0.90;;;0.90;;
64678;SDS011;51094;53.864;27.676;2022-07-15T08:36:34;0.88;;;0.88;;
64678;SDS011;51094;53.864;27.676;2022-07-15T08:39:01;0.60;;;0.60;;
64678;SDS011;51094;53.864;27.676;2022-07-15T08:41:29;0.80;;;0.80;;
64678;SDS011;51094;53.864;27.676;2022-07-15T08:44:00;1.02;;;1.02;;
64678;SDS011;51094;53.864;27.676;2022-07-15T08:46:26;1.00;;;1.00;;
64678;SDS011;51094;53.864;27.676;2022-07-15T08:48:55;1.15;;;1.15;;
64678;SDS011;51094;53.864;27.676;2022-07-15T08:51:28;0.80;;;0.80;;
64678;SDS011;51094;53.864;27.676;2022-07-15T08:54:01;0.60;;;0.60;;
64678;SDS011;51094;53.864;27.676;2022-07-15T08:56:28;1.00;;;1.00;;
64678;SDS011;51094;53.864;27.676;2022-07-15T08:58:55;0.77;;;0.77;;
64678;SDS011;51094;53.864;27.676;2022-07-15T09:01:26;0.60;;;0.60;;
64678;SDS011;51094;53.864;27.676;2022-07-15T09:03:53;0.50;;;0.50;;
64678;SDS011;51094;53.864;27.676;2022-07-15T09:09:22;0.68;;;0.68;;
64678;SDS011;51094;53.864;27.676;2022-07-15T09:14:40;0.50;;;0.50;;
64678;SDS011;51094;53.864;27.676;2022-07-15T09:22:26;0.40;;;0.40;;
64678;SDS011;51094;53.864;27.676;2022-07-15T09:25:07;0.77;;;0.60;;
64678;SDS011;51094;53.864;27.676;2022-07-15T09:27:37;0.60;;;0.60;;
64678;SDS011;51094;53.864;27.676;2022-07-15T09:30:18;0.70;;;0.70;;
64678;SDS011;51094;53.864;27.676;2022-07-15T09:33:10;0.50;;;0.50;;
64678;SDS011;51094;53.864;27.676;2022-07-15T09:38:53;1.30;;;1.30;;
64678;SDS011;51094;53.864;27.676;2022-07-15T09:41:40;0.70;;;0.70;;
64678;SDS011;51094;53.864;27.676;2022-07-15T09:44:09;0.70;;;0.70;;
64678;SDS011;51094;53.864;27.676;2022-07-15T09:49:31;0.30;;;0.30;;
64678;SDS011;51094;53.864;27.676;2022-07-15T09:52:02;0.40;;;0.40;;
64678;SDS011;51094;53.864;27.676;2022-07-15T09:54:37;0.60;;;0.60;;
64678;SDS011;51094;53.864;27.676;2022-07-15T09:57:07;0.60;;;0.60;;
64678;SDS011;51094;53.864;27.676;2022-07-15T09:59:36;0.70;;;0.70;;
64678;SDS011;51094;53.864;27.676;2022-07-15T10:02:06;0.73;;;0.73;;
64678;SDS011;51094;53.864;27.676;2022-07-15T10:04:33;1.58;;;1.48;;
64678;SDS011;51094;53.864;27.676;2022-07-15T10:07:00;0.90;;;0.90;;
64678;SDS011;51094;53.864;27.676;2022-07-15T10:09:51;0.90;;;0.90;;
64678;SDS011;51094;53.864;27.676;2022-07-15T10:12:20;0.90;;;0.90;;
64678;SDS011;51094;53.864;27.676;2022-07-15T10:17:51;0.60;;;0.60;;
64678;SDS011;51094;53.864;27.676;2022-07-15T10:20:45;0.90;;;0.90;;
64678;SDS011;51094;53.864;27.676;2022-07-15T10:23:48;0.60;;;0.60;;
64678;SDS011;51094;53.864;27.676;2022-07-15T10:31:29;0.50;;;0.50;;
64678;SDS011;51094;53.864;27.676;2022-07-15T10:36:40;0.88;;;0.88;;
64678;SDS011;51094;53.864;27.676;2022-07-15T10:39:08;1.30;;;1.30;;
64678;SDS011;51094;53.864;27.676;2022-07-15T10:44:17;0.47;;;0.47;;
64678;SDS011;51094;53.864;27.676;2022-07-15T10:46:43;0.70;;;0.70;;
64678;SDS011;51094;53.864;27.676;2022-07-15T10:54:07;0.80;;;0.80;;
64678;SDS011;51094;53.864;27.676;2022-07-15T10:56:36;0.70;;;0.70;;
64678;SDS011;51094;53.864;27.676;2022-07-15T10:59:13;0.70;;;0.70;;
64678;SDS011;51094;53.864;27.676;2022-07-15T11:01:48;0.60;;;0.60;;
64678;SDS011;51094;53.864;27.676;2022-07-15T11:04:18;0.60;;;0.60;;
64678;SDS011;51094;53.864;27.676;2022-07-15T11:12:21;0.88;;;0.88;;
64678;SDS011;51094;53.864;27.676;2022-07-15T11:14:54;0.40;;;0.40;;
64678;SDS011;51094;53.864;27.676;2022-07-15T11:17:36;0.50;;;0.50;;
64678;SDS011;51094;53.864;27.676;2022-07-15T11:20:06;1.00;;;1.00;;
64678;SDS011;51094;53.864;27.676;2022-07-15T11:22:36;1.13;;;1.13;;
64678;SDS011;51094;53.864;27.676;2022-07-15T11:27:31;1.40;;;1.40;;
64678;SDS011;51094;53.864;27.676;2022-07-15T11:30:00;1.60;;;1.60;;
64678;SDS011;51094;53.864;27.676;2022-07-15T11:32:31;1.30;;;1.30;;
64678;SDS011;51094;53.864;27.676;2022-07-15T11:35:01;0.90;;;0.90;;
64678;SDS011;51094;53.864;27.676;2022-07-15T11:37:30;0.50;;;0.50;;
64678;SDS011;51094;53.864;27.676;2022-07-15T11:40:09;0.30;;;0.30;;
64678;SDS011;51094;53.864;27.676;2022-07-15T11:42:58;0.30;;;0.30;;
64678;SDS011;51094;53.864;27.676;2022-07-15T11:45:44;0.40;;;0.40;;
64678;SDS011;51094;53.864;27.676;2022-07-15T11:48:12;0.30;;;0.30;;
64678;SDS011;51094;53.864;27.676;2022-07-15T11:50:49;0.30;;;0.30;;
64678;SDS011;51094;53.864;27.676;2022-07-15T11:53:17;0.30;;;0.30;;
64678;SDS011;51094;53.864;27.676;2022-07-15T11:55:48;0.40;;;0.40;;
64678;SDS011;51094;53.864;27.676;2022-07-15T11:58:52;0.50;;;0.50;;
64678;SDS011;51094;53.864;27.676;2022-07-15T12:01:16;0.50;;;0.50;;
64678;SDS011;51094;53.864;27.676;2022-07-15T12:03:51;0.50;;;0.50;;
64678;SDS011;51094;53.864;27.676;2022-07-15T12:06:20;0.50;;;0.50;;
64678;SDS011;51094;53.864;27.676;2022-07-15T12:13:46;0.50;;;0.50;;
64678;SDS011;51094;53.864;27.676;2022-07-15T12:16:18;0.50;;;0.50;;
64678;SDS011;51094;53.864;27.676;2022-07-15T12:18:48;0.50;;;0.50;;
64678;SDS011;51094;53.864;27.676;2022-07-15T12:21:16;0.40;;;0.40;;
64678;SDS011;51094;53.864;27.676;2022-07-15T12:23:56;0.60;;;0.60;;
64678;SDS011;51094;53.864;27.676;2022-07-15T12:26:24;0.40;;;0.40;;
64678;SDS011;51094;53.864;27.676;2022-07-15T12:28:55;0.50;;;0.50;;
64678;SDS011;51094;53.864;27.676;2022-07-15T12:31:28;0.50;;;0.50;;
64678;SDS011;51094;53.864;27.676;2022-07-15T12:33:56;0.50;;;0.50;;
64678;SDS011;51094;53.864;27.676;2022-07-15T12:36:24;0.40;;;0.40;;
64678;SDS011;51094;53.864;27.676;2022-07-15T12:41:31;0.43;;;0.43;;
64678;SDS011;51094;53.864;27.676;2022-07-15T12:43:59;0.35;;;0.35;;
64678;SDS011;51094;53.864;27.676;2022-07-15T12:55:13;0.30;;;0.30;;
64678;SDS011;51094;53.864;27.676;2022-07-15T12:57:45;0.30;;;0.30;;
64678;SDS011;51094;53.864;27.676;2022-07-15T13:00:14;0.43;;;0.30;;
64678;SDS011;51094;53.864;27.676;2022-07-15T13:02:55;0.35;;;0.35;;
64678;SDS011;51094;53.864;27.676;2022-07-15T13:05:24;0.30;;;0.30;;
64678;SDS011;51094;53.864;27.676;2022-07-15T13:07:52;0.20;;;0.20;;
64678;SDS011;51094;53.864;27.676;2022-07-15T13:10:19;0.30;;;0.30;;
64678;SDS011;51094;53.864;27.676;2022-07-15T13:12:46;0.30;;;0.30;;
64678;SDS011;51094;53.864;27.676;2022-07-15T13:15:12;0.32;;;0.32;;
64678;SDS011;51094;53.864;27.676;2022-07-15T13:17:44;0.30;;;0.30;;
64678;SDS011;51094;53.864;27.676;2022-07-15T13:20:11;0.35;;;0.35;;
64678;SDS011;51094;53.864;27.676;2022-07-15T13:22:39;0.40;;;0.40;;
64678;SDS011;51094;53.864;27.676;2022-07-15T13:25:06;0.30;;;0.30;;
64678;SDS011;51094;53.864;27.676;2022-07-15T13:27:33;0.30;;;0.30;;
64678;SDS011;51094;53.864;27.676;2022-07-15T13:29:59;0.32;;;0.32;;
64678;SDS011;51094;53.864;27.676;2022-07-15T13:32:26;0.47;;;0.47;;
64678;SDS011;51094;53.864;27.676;2022-07-15T13:34:55;0.50;;;0.50;;
64678;SDS011;51094;53.864;27.676;2022-07-15T13:37:21;0.50;;;0.50;;
64678;SDS011;51094;53.864;27.676;2022-07-15T13:39:48;0.45;;;0.45;;
64678;SDS011;51094;53.864;27.676;2022-07-15T13:42:15;0.40;;;0.40;;
64678;SDS011;51094;53.864;27.676;2022-07-15T13:44:41;0.47;;;0.47;;
64678;SDS011;51094;53.864;27.676;2022-07-15T13:47:08;0.75;;;0.75;;
64678;SDS011;51094;53.864;27.676;2022-07-15T13:49:35;0.60;;;0.60;;
64678;SDS011;51094;53.864;27.676;2022-07-15T13:52:20;0.50;;;0.50;;
64678;SDS011;51094;53.864;27.676;2022-07-15T13:54:47;0.50;;;0.50;;
64678;SDS011;51094;53.864;27.676;2022-07-15T13:57:14;0.50;;;0.50;;
64678;SDS011;51094;53.864;27.676;2022-07-15T13:59:40;0.68;;;0.68;;
64678;SDS011;51094;53.864;27.676;2022-07-15T14:02:07;0.70;;;0.70;;
64678;SDS011;51094;53.864;27.676;2022-07-15T14:04:34;0.77;;;0.77;;
64678;SDS011;51094;53.864;27.676;2022-07-15T14:07:01;0.68;;;0.68;;
64678;SDS011;51094;53.864;27.676;2022-07-15T14:09:29;0.57;;;0.57;;
64678;SDS011;51094;53.864;27.676;2022-07-15T14:11:56;0.40;;;0.40;;
64678;SDS011;51094;53.864;27.676;2022-07-15T14:14:23;0.50;;;0.50;;
64678;SDS011;51094;53.864;27.676;2022-07-15T14:16:49;0.43;;;0.43;;
64678;SDS011;51094;53.864;27.676;2022-07-15T14:19:18;0.43;;;0.43;;
64678;SDS011;51094;53.864;27.676;2022-07-15T14:21:45;0.50;;;0.50;;
64678;SDS011;51094;53.864;27.676;2022-07-15T14:24:19;0.50;;;0.50;;
64678;SDS011;51094;53.864;27.676;2022-07-15T14:26:46;0.55;;;0.55;;
64678;SDS011;51094;53.864;27.676;2022-07-15T14:29:12;0.50;;;0.50;;
64678;SDS011;51094;53.864;27.676;2022-07-15T14:31:39;0.50;;;0.50;;
64678;SDS011;51094;53.864;27.676;2022-07-15T14:34:06;0.40;;;0.40;;
64678;SDS011;51094;53.864;27.676;2022-07-15T14:36:33;0.50;;;0.50;;
64678;SDS011;51094;53.864;27.676;2022-07-15T14:39:00;0.50;;;0.50;;
64678;SDS011;51094;53.864;27.676;2022-07-15T14:41:27;0.40;;;0.40;;
64678;SDS011;51094;53.864;27.676;2022-07-15T14:43:54;0.30;;;0.30;;
64678;SDS011;51094;53.864;27.676;2022-07-15T14:46:20;0.43;;;0.43;;
64678;SDS011;51094;53.864;27.676;2022-07-15T14:48:48;0.50;;;0.50;;
64678;SDS011;51094;53.864;27.676;2022-07-15T14:51:15;0.40;;;0.40;;
64678;SDS011;51094;53.864;27.676;2022-07-15T14:53:42;0.40;;;0.40;;
64678;SDS011;51094;53.864;27.676;2022-07-15T14:56:08;0.40;;;0.40;;
64678;SDS011;51094;53.864;27.676;2022-07-15T14:58:35;0.40;;;0.40;;
64678;SDS011;51094;53.864;27.676;2022-07-15T15:01:02;0.30;;;0.30;;
64678;SDS011;51094;53.864;27.676;2022-07-15T15:03:28;0.40;;;0.40;;
64678;SDS011;51094;53.864;27.676;2022-07-15T15:05:55;1.00;;;1.00;;
64678;SDS011;51094;53.864;27.676;2022-07-15T15:08:23;1.15;;;1.15;;
64678;SDS011;51094;53.864;27.676;2022-07-15T15:10:50;0.80;;;0.80;;
64678;SDS011;51094;53.864;27.676;2022-07-15T15:13:17;0.82;;;0.82;;
64678;SDS011;51094;53.864;27.676;2022-07-15T15:15:44;0.50;;;0.50;;
64678;SDS011;51094;53.864;27.676;2022-07-15T15:18:10;0.70;;;0.70;;
64678;SDS011;51094;53.864;27.676;2022-07-15T15:20:37;0.40;;;0.40;;
64678;SDS011;51094;53.864;27.676;2022-07-15T15:23:04;0.47;;;0.47;;
64678;SDS011;51094;53.864;27.676;2022-07-15T15:25:31;0.50;;;0.50;;
64678;SDS011;51094;53.864;27.676;2022-07-15T15:28:16;0.80;;;0.80;;
64678;SDS011;51094;53.864;27.676;2022-07-15T15:30:42;0.80;;;0.80;;
64678;SDS011;51094;53.864;27.676;2022-07-15T15:33:09;0.63;;;0.63;;
64678;SDS011;51094;53.864;27.676;2022-07-15T15:35:36;0.60;;;0.60;;
64678;SDS011;51094;53.864;27.676;2022-07-15T15:38:02;0.80;;;0.80;;
64678;SDS011;51094;53.864;27.676;2022-07-15T15:40:29;0.75;;;0.75;;
64678;SDS011;51094;53.864;27.676;2022-07-15T15:42:56;1.02;;;1.02;;
64678;SDS011;51094;53.864;27.676;2022-07-15T15:45:30;0.80;;;0.80;;
64678;SDS011;51094;53.864;27.676;2022-07-15T15:47:57;0.70;;;0.70;;
64678;SDS011;51094;53.864;27.676;2022-07-15T15:50:23;0.70;;;0.70;;